createdAt,value
2023-04-23T00:02:18.346Z,26.80
2023-04-23T00:05:16.003Z,27.60
2023-04-23T00:11:04.089Z,23.80
2023-04-23T00:13:59.495Z,22.60
2023-04-23T00:16:55.049Z,24.60
2023-04-23T00:19:48.704Z,22.80
2023-04-23T00:22:42.645Z,24.40
2023-04-23T00:25:37.249Z,26.30
2023-04-23T00:28:31.003Z,25.40
2023-04-23T00:31:27.173Z,24.20
2023-04-23T00:34:20.914Z,26.30
2023-04-23T00:37:14.595Z,29.60
2023-04-23T00:40:10.973Z,28.30
2023-04-23T00:43:05.405Z,30.00
2023-04-23T00:45:59.442Z,29.10
2023-04-23T00:48:54.441Z,28.40
2023-04-23T00:51:48.171Z,30.90
2023-04-23T00:54:42.454Z,30.10
2023-04-23T00:57:37.689Z,31.20
2023-04-23T01:00:32.187Z,29.70
2023-04-23T01:03:27.417Z,34.90
2023-04-23T01:06:22.231Z,32.30
2023-04-23T01:09:17.971Z,33.20
2023-04-23T01:12:12.983Z,31.90
2023-04-23T01:15:08.890Z,33.40
2023-04-23T01:18:04.606Z,30.80
2023-04-23T01:20:58.486Z,33.20
2023-04-23T01:23:52.408Z,34.00
2023-04-23T01:26:46.792Z,31.10
2023-04-23T01:29:41.024Z,35.70
2023-04-23T01:32:35.075Z,32.20
2023-04-23T01:35:13.228Z,32.90
2023-04-23T01:38:08.213Z,33.80
2023-04-23T01:41:01.918Z,32.50
2023-04-23T01:43:56.159Z,32.00
2023-04-23T01:46:49.835Z,37.30
2023-04-23T01:49:44.100Z,34.90
2023-04-23T01:52:37.739Z,32.90
2023-04-23T01:55:32.696Z,33.30
2023-04-23T01:58:27.120Z,34.30
2023-04-23T02:01:21.663Z,34.00
2023-04-23T02:04:17.206Z,33.50
2023-04-23T02:07:11.246Z,36.70
2023-04-23T02:10:05.979Z,32.50
2023-04-23T02:13:00.899Z,37.40
2023-04-23T02:15:54.735Z,34.10
2023-04-23T02:18:48.380Z,34.40
2023-04-23T02:21:42.206Z,33.60
2023-04-23T02:24:36.450Z,31.10
2023-04-23T02:27:30.390Z,31.90
2023-04-23T02:30:25.654Z,32.40
2023-04-23T02:33:19.740Z,34.30
2023-04-23T02:36:13.526Z,35.30
2023-04-23T02:39:07.208Z,37.70
2023-04-23T02:42:01.957Z,31.60
2023-04-23T02:44:55.582Z,30.50
2023-04-23T02:47:49.211Z,30.40
2023-04-23T02:50:43.143Z,32.20
2023-04-23T02:53:36.816Z,29.40
2023-04-23T02:56:30.511Z,31.50
2023-04-23T02:59:24.715Z,34.20
2023-04-23T03:02:18.507Z,32.80
2023-04-23T03:05:13.817Z,33.10
2023-04-23T03:08:07.890Z,33.40
2023-04-23T03:11:01.700Z,34.30
2023-04-23T03:13:55.272Z,31.80
2023-04-23T03:16:49.072Z,36.10
2023-04-23T03:19:43.033Z,37.60
2023-04-23T03:22:37.174Z,32.20
2023-04-23T03:25:31.153Z,35.20
2023-04-23T03:28:25.093Z,36.80
2023-04-23T03:31:03.802Z,34.90
2023-04-23T03:33:57.427Z,33.80
2023-04-23T03:36:51.335Z,33.40
2023-04-23T03:39:45.123Z,28.90
2023-04-23T03:42:39.115Z,31.90
2023-04-23T03:45:34.990Z,32.00
2023-04-23T03:48:29.065Z,36.20
2023-04-23T03:51:22.912Z,34.40
2023-04-23T03:54:16.603Z,33.10
2023-04-23T03:57:11.974Z,32.10
2023-04-23T04:00:08.282Z,34.90
2023-04-23T04:03:02.279Z,30.60
2023-04-23T04:05:56.215Z,35.00
2023-04-23T04:08:49.949Z,31.90
2023-04-23T04:11:44.013Z,33.00
2023-04-23T04:14:38.063Z,33.40
2023-04-23T04:17:32.071Z,37.70
2023-04-23T04:20:25.844Z,32.30
2023-04-23T04:23:19.891Z,32.40
2023-04-23T04:26:15.168Z,34.10
2023-04-23T04:29:09.510Z,29.90
2023-04-23T04:32:05.251Z,38.20
2023-04-23T04:34:52.636Z,34.40
2023-04-23T04:37:46.900Z,34.00
2023-04-23T04:40:40.960Z,32.30
2023-04-23T04:43:34.890Z,35.10
2023-04-23T04:46:29.411Z,32.40
2023-04-23T04:49:23.957Z,31.10
2023-04-23T04:52:17.578Z,31.10
2023-04-23T04:55:12.620Z,31.00
2023-04-23T04:58:06.681Z,34.50
2023-04-23T05:01:01.501Z,31.40
2023-04-23T05:03:55.403Z,30.60
2023-04-23T05:06:49.415Z,33.30
2023-04-23T05:09:45.139Z,31.40
2023-04-23T05:12:41.452Z,26.60
2023-04-23T05:15:35.291Z,29.30
2023-04-23T05:18:29.629Z,30.40
2023-04-23T05:21:23.387Z,30.20
2023-04-23T05:24:17.284Z,27.50
2023-04-23T05:27:11.210Z,29.80
2023-04-23T05:30:08.241Z,27.90
2023-04-23T05:33:02.045Z,27.80
2023-04-23T05:35:57.279Z,30.40
2023-04-23T05:38:51.590Z,34.20
2023-04-23T05:41:45.553Z,30.40
2023-04-23T05:44:41.908Z,32.70
2023-04-23T05:47:36.072Z,30.70
2023-04-23T05:50:30.159Z,33.50
2023-04-23T05:53:24.144Z,34.70
2023-04-23T05:56:17.781Z,27.80
2023-04-23T05:59:11.508Z,30.20
2023-04-23T06:02:05.635Z,30.00
2023-04-23T06:04:59.723Z,29.00
2023-04-23T06:07:53.406Z,26.50
2023-04-23T06:10:47.731Z,29.30
2023-04-23T06:13:43.904Z,27.70
2023-04-23T06:16:38.249Z,29.00
2023-04-23T06:19:31.852Z,25.60
2023-04-23T06:22:26.468Z,25.90
2023-04-23T06:25:20.224Z,31.90
2023-04-23T06:28:14.365Z,25.20
2023-04-23T06:31:08.791Z,27.70
2023-04-23T06:34:02.643Z,23.70
2023-04-23T06:36:56.675Z,32.30
2023-04-23T06:39:50.709Z,24.80
2023-04-23T06:42:45.471Z,20.10
2023-04-23T06:45:39.129Z,18.50
2023-04-23T06:48:33.684Z,20.30
2023-04-23T06:51:29.764Z,23.20
2023-04-23T06:54:23.435Z,21.90
2023-04-23T06:57:17.253Z,18.30
2023-04-23T07:00:14.147Z,20.20
2023-04-23T07:03:08.369Z,25.00
2023-04-23T07:06:02.233Z,20.00
2023-04-23T07:08:56.372Z,18.00
2023-04-23T07:11:50.199Z,19.10
2023-04-23T07:14:44.205Z,20.90
2023-04-23T07:17:38.125Z,19.90
2023-04-23T07:20:32.846Z,22.10
2023-04-23T07:23:26.502Z,22.10
2023-04-23T07:26:20.225Z,20.20
2023-04-23T07:29:14.357Z,17.50
2023-04-23T07:32:08.044Z,18.40
2023-04-23T07:35:01.723Z,18.10
2023-04-23T07:37:57.874Z,18.50
2023-04-23T07:40:52.165Z,20.00
2023-04-23T07:43:46.204Z,17.50
2023-04-23T07:46:39.862Z,18.60
2023-04-23T07:49:33.920Z,16.80
2023-04-23T07:52:27.802Z,19.80
2023-04-23T07:55:21.869Z,17.50
2023-04-23T07:58:15.526Z,18.20
2023-04-23T08:01:09.348Z,18.50
2023-04-23T08:04:03.305Z,19.10
2023-04-23T08:06:57.175Z,16.70
2023-04-23T08:09:51.281Z,17.50
2023-04-23T08:12:45.177Z,14.80
2023-04-23T08:15:39.010Z,17.50
2023-04-23T08:18:32.981Z,13.90
2023-04-23T08:21:27.431Z,13.80
2023-04-23T08:24:21.282Z,12.00
2023-04-23T08:27:15.005Z,24.30
2023-04-23T08:30:12.499Z,12.80
2023-04-23T08:33:06.379Z,19.10
2023-04-23T08:36:00.003Z,18.00
2023-04-23T08:38:53.807Z,14.70
2023-04-23T08:41:50.593Z,10.20
2023-04-23T08:44:47.746Z,13.00
2023-04-23T08:47:43.497Z,13.40
2023-04-23T08:50:39.204Z,11.40
2023-04-23T08:53:33.617Z,9.80
2023-04-23T08:56:28.394Z,7.80
2023-04-23T08:59:23.100Z,11.10
2023-04-23T09:02:18.075Z,8.80
2023-04-23T09:05:14.234Z,10.90
2023-04-23T09:08:08.683Z,10.00
2023-04-23T09:11:03.741Z,7.60
2023-04-23T09:13:57.966Z,8.00
2023-04-23T09:16:52.076Z,7.60
2023-04-23T09:19:46.269Z,9.50
2023-04-23T09:22:48.583Z,9.50
2023-04-23T09:25:42.699Z,10.50
2023-04-23T09:28:42.640Z,9.50
2023-04-23T09:31:36.593Z,9.40
2023-04-23T09:34:30.717Z,9.50
2023-04-23T09:37:28.076Z,7.00
2023-04-23T09:40:24.122Z,6.80
2023-04-23T09:43:17.981Z,13.70
2023-04-23T09:46:13.305Z,6.70
2023-04-23T09:48:59.394Z,13.00
2023-04-23T09:51:53.383Z,4.90
2023-04-23T09:54:47.480Z,6.90
2023-04-23T09:57:43.353Z,9.00
2023-04-23T10:00:41.755Z,7.20
2023-04-23T10:03:35.897Z,9.30
2023-04-23T10:06:44.318Z,6.50
2023-04-23T10:09:44.492Z,5.30
2023-04-23T10:12:53.632Z,6.20
2023-04-23T10:15:49.952Z,5.20
2023-04-23T10:18:44.296Z,5.10
2023-04-23T10:21:52.301Z,5.90
2023-04-23T10:24:51.523Z,5.40
2023-04-23T10:27:53.724Z,6.00
2023-04-23T10:30:49.766Z,5.30
2023-04-23T10:33:56.013Z,7.00
2023-04-23T10:36:53.921Z,5.30
2023-04-23T10:39:51.716Z,5.50
2023-04-23T10:42:47.319Z,5.60
2023-04-23T10:45:41.408Z,5.10
2023-04-23T10:49:16.355Z,5.10
2023-04-23T10:52:21.485Z,5.00
2023-04-23T10:55:22.958Z,4.90
2023-04-23T10:58:08.592Z,4.90
2023-04-23T11:01:07.900Z,4.10
2023-04-23T11:04:22.320Z,7.50
2023-04-23T11:07:19.956Z,5.50
2023-04-23T11:10:17.991Z,7.40
2023-04-23T11:13:29.257Z,5.80
2023-04-23T11:16:26.107Z,4.90
2023-04-23T11:19:20.713Z,4.40
2023-04-23T11:22:20.696Z,3.40
2023-04-23T11:25:16.161Z,5.10
2023-04-23T11:28:10.461Z,6.50
2023-04-23T11:31:04.487Z,5.30
2023-04-23T11:33:58.715Z,4.10
2023-04-23T11:36:55.167Z,7.00
2023-04-23T11:39:51.663Z,4.60
2023-04-23T11:42:50.640Z,3.80
2023-04-23T11:45:44.738Z,7.90
2023-04-23T11:48:39.450Z,6.80
2023-04-23T11:51:33.292Z,6.70
2023-04-23T11:54:31.757Z,4.90
2023-04-23T11:57:26.341Z,5.00
2023-04-23T12:00:24.216Z,4.90
2023-04-23T12:03:18.190Z,9.30
2023-04-23T12:06:12.931Z,6.40
2023-04-23T12:09:07.044Z,4.80
2023-04-23T12:12:01.113Z,7.10
2023-04-23T12:15:07.105Z,5.50
2023-04-23T12:18:14.583Z,4.30
2023-04-23T12:21:33.090Z,5.80
2023-04-23T12:24:48.802Z,4.70
2023-04-23T12:27:47.249Z,4.00
2023-04-23T12:30:48.834Z,4.40
2023-04-23T12:33:42.476Z,4.00
2023-04-23T12:36:37.377Z,4.80
2023-04-23T12:39:33.970Z,6.80
2023-04-23T12:42:28.312Z,5.70
2023-04-23T12:45:22.019Z,5.00
2023-04-23T12:48:16.087Z,4.80
2023-04-23T12:51:10.816Z,4.50
2023-04-23T12:54:04.760Z,4.70
2023-04-23T12:56:58.757Z,8.60
2023-04-23T12:59:54.788Z,4.70
2023-04-23T13:02:48.993Z,5.00
2023-04-23T13:05:43.157Z,5.50
2023-04-23T13:08:37.256Z,5.40
2023-04-23T13:11:16.250Z,5.20
2023-04-23T13:14:10.334Z,5.00
2023-04-23T13:17:00.468Z,4.60
2023-04-23T13:19:54.470Z,7.20
2023-04-23T13:22:48.158Z,6.90
2023-04-23T13:25:42.537Z,6.10
2023-04-23T13:28:36.917Z,4.40
2023-04-23T13:31:31.457Z,6.70
2023-04-23T13:34:25.653Z,5.60
2023-04-23T13:37:19.787Z,8.30
2023-04-23T13:40:15.465Z,5.20
2023-04-23T13:43:09.565Z,7.00
2023-04-23T13:46:03.499Z,7.20
2023-04-23T13:49:00.154Z,5.70
2023-04-23T13:51:58.847Z,6.00
2023-04-23T13:54:54.611Z,7.40
2023-04-23T13:57:48.699Z,7.60
2023-04-23T14:00:45.074Z,5.90
2023-04-23T14:03:38.822Z,8.70
2023-04-23T14:06:32.900Z,7.70
2023-04-23T14:09:26.997Z,4.80
2023-04-23T14:12:21.260Z,6.10
2023-04-23T14:15:15.738Z,4.80
2023-04-23T14:18:10.529Z,6.00
2023-04-23T14:21:04.506Z,8.50
2023-04-23T14:24:09.472Z,5.70
2023-04-23T14:27:05.190Z,6.70
2023-04-23T14:30:06.236Z,6.50
2023-04-23T14:33:00.406Z,7.60
2023-04-23T14:35:54.639Z,8.20
2023-04-23T14:38:48.802Z,5.90
2023-04-23T14:41:42.677Z,7.40
2023-04-23T14:44:36.566Z,5.60
2023-04-23T14:47:30.987Z,5.90
2023-04-23T14:50:25.232Z,6.50
2023-04-23T14:53:19.956Z,5.80
2023-04-23T14:56:14.376Z,7.30
2023-04-23T14:59:08.202Z,6.70
2023-04-23T15:02:03.355Z,7.60
2023-04-23T15:04:57.719Z,6.90
2023-04-23T15:07:53.263Z,6.80
2023-04-23T15:10:47.474Z,6.30
2023-04-23T15:13:56.343Z,7.10
2023-04-23T15:16:50.693Z,5.20
2023-04-23T15:19:44.787Z,5.60
2023-04-23T15:22:38.482Z,7.30
2023-04-23T15:25:33.196Z,6.90
2023-04-23T15:28:27.387Z,9.90
2023-04-23T15:31:21.455Z,6.80
2023-04-23T15:34:15.681Z,7.60
2023-04-23T15:37:09.744Z,5.50
2023-04-23T15:40:03.512Z,6.90
2023-04-23T15:42:57.811Z,6.10
2023-04-23T15:45:53.123Z,5.40
2023-04-23T15:48:46.957Z,6.50
2023-04-23T15:51:41.506Z,6.20
2023-04-23T15:54:35.596Z,6.80
2023-04-23T15:57:30.033Z,6.10
2023-04-23T16:00:24.118Z,6.70
2023-04-23T16:03:18.243Z,6.20
2023-04-23T16:06:12.611Z,6.40
2023-04-23T16:09:08.078Z,7.00
2023-04-23T16:12:02.364Z,7.30
2023-04-23T16:14:56.658Z,5.50
2023-04-23T16:17:52.722Z,6.80
2023-04-23T16:20:46.686Z,10.00
2023-04-23T16:23:41.362Z,7.00
2023-04-23T16:26:35.662Z,8.20
2023-04-23T16:29:30.130Z,6.40
2023-04-23T16:32:24.137Z,7.50
2023-04-23T16:35:18.369Z,5.10
2023-04-23T16:38:12.973Z,5.90
2023-04-23T16:41:07.180Z,7.00
2023-04-23T16:44:01.329Z,8.80
2023-04-23T16:46:55.266Z,7.90
2023-04-23T16:49:49.073Z,7.40
2023-04-23T16:52:42.895Z,7.40
2023-04-23T16:55:37.401Z,6.20
2023-04-23T16:58:31.307Z,6.60
2023-04-23T17:01:25.481Z,7.30
2023-04-23T17:04:20.116Z,10.00
2023-04-23T17:07:14.116Z,8.40
2023-04-23T17:10:09.794Z,6.90
2023-04-23T17:13:03.603Z,6.70
2023-04-23T17:15:57.520Z,8.10
2023-04-23T17:18:51.515Z,8.40
2023-04-23T17:21:45.749Z,7.70
2023-04-23T17:24:40.491Z,6.80
2023-04-23T17:27:34.959Z,6.40
2023-04-23T17:30:28.896Z,7.00
2023-04-23T17:33:23.540Z,6.10
2023-04-23T17:36:17.905Z,7.10
2023-04-23T17:39:11.975Z,6.60
2023-04-23T17:42:07.328Z,7.00
2023-04-23T17:45:01.406Z,6.60
2023-04-23T17:47:55.489Z,6.60
2023-04-23T17:50:49.286Z,7.30
2023-04-23T17:53:48.143Z,7.20
2023-04-23T17:56:41.943Z,6.50
2023-04-23T17:59:35.774Z,7.50
2023-04-23T18:02:30.172Z,6.90
2023-04-23T18:05:24.366Z,6.30
2023-04-23T18:08:19.548Z,8.90
2023-04-23T18:11:13.608Z,8.10
2023-04-23T18:14:07.478Z,7.60
2023-04-23T18:17:01.709Z,8.50
2023-04-23T18:19:57.334Z,7.50
2023-04-23T18:22:51.551Z,7.50
2023-04-23T18:25:45.439Z,7.20
2023-04-23T18:28:39.352Z,7.50
2023-04-23T18:31:33.181Z,7.30
2023-04-23T18:34:30.997Z,5.70
2023-04-23T18:37:43.760Z,9.70
2023-04-23T18:40:37.779Z,6.40
2023-04-23T18:43:33.465Z,6.20
2023-04-23T18:46:28.906Z,7.50
2023-04-23T18:49:45.868Z,23.30
2023-04-23T18:52:40.089Z,11.00
2023-04-23T18:55:34.144Z,5.90
2023-04-23T18:58:29.833Z,6.90
2023-04-23T19:01:24.308Z,6.80
2023-04-23T19:04:18.180Z,6.10
2023-04-23T19:07:12.161Z,5.80
2023-04-23T19:10:06.271Z,7.10
2023-04-23T19:13:00.065Z,6.60
2023-04-23T19:15:53.841Z,6.00
2023-04-23T19:18:47.892Z,6.80
2023-04-23T19:21:41.945Z,5.90
2023-04-23T19:24:35.660Z,6.00
2023-04-23T19:27:29.599Z,9.20
2023-04-23T19:30:23.657Z,5.60
2023-04-23T19:33:17.844Z,7.20
2023-04-23T19:36:11.745Z,7.20
2023-04-23T19:39:05.454Z,5.90
2023-04-23T19:41:59.302Z,8.30
2023-04-23T19:44:53.037Z,7.50
2023-04-23T19:47:48.151Z,7.90
2023-04-23T19:50:42.345Z,9.60
2023-04-23T19:53:36.187Z,9.60
2023-04-23T19:56:30.232Z,10.00
2023-04-23T19:59:24.693Z,8.40
2023-04-23T20:02:18.862Z,7.80
2023-04-23T20:05:14.002Z,9.10
2023-04-23T20:08:15.039Z,8.50
2023-04-23T20:11:09.118Z,11.00
2023-04-23T20:14:02.996Z,10.60
2023-04-23T20:16:57.316Z,9.80
2023-04-23T20:19:51.266Z,10.90
2023-04-23T20:22:45.813Z,10.60
2023-04-23T20:25:39.793Z,12.20
2023-04-23T20:28:33.601Z,11.00
2023-04-23T20:31:27.911Z,13.00
2023-04-23T20:34:21.954Z,9.80
2023-04-23T20:37:21.368Z,9.30
2023-04-23T20:40:16.162Z,13.50
2023-04-23T20:43:10.063Z,10.80
2023-04-23T20:46:04.316Z,11.20
2023-04-23T20:49:00.823Z,15.40
2023-04-23T20:51:54.990Z,11.70
2023-04-23T20:54:49.483Z,10.60
2023-04-23T20:57:43.411Z,12.30
2023-04-23T21:00:37.273Z,14.10
2023-04-23T21:03:32.942Z,13.80
2023-04-23T21:06:27.173Z,11.90
2023-04-23T21:09:21.215Z,17.30
2023-04-23T21:12:14.924Z,15.50
2023-04-23T21:15:12.660Z,17.50
2023-04-23T21:18:08.207Z,18.90
2023-04-23T21:21:02.381Z,18.60
2023-04-23T21:23:56.563Z,15.30
2023-04-23T21:26:50.814Z,19.80
2023-04-23T21:29:46.876Z,16.20
2023-04-23T21:32:40.672Z,17.90
2023-04-23T21:35:34.427Z,16.90
2023-04-23T21:38:28.264Z,16.60
2023-04-23T21:41:22.508Z,17.80
2023-04-23T21:44:17.664Z,17.20
2023-04-23T21:47:11.650Z,16.70
2023-04-23T21:50:06.225Z,16.90
2023-04-23T21:53:03.942Z,16.90
2023-04-23T21:55:58.152Z,14.50
2023-04-23T21:58:52.092Z,18.20
2023-04-23T22:01:46.295Z,15.80
2023-04-23T22:04:40.385Z,14.60
2023-04-23T22:07:39.593Z,15.40
2023-04-23T22:10:33.924Z,12.70
2023-04-23T22:13:27.824Z,16.60
2023-04-23T22:16:28.801Z,12.50
2023-04-23T22:19:23.167Z,15.90
2023-04-23T22:22:16.751Z,16.10
2023-04-23T22:25:13.062Z,12.20
2023-04-23T22:28:07.045Z,16.60
2023-04-23T22:31:01.381Z,12.50
2023-04-23T22:33:55.166Z,12.40
2023-04-23T22:36:49.098Z,14.00
2023-04-23T22:39:43.255Z,15.20
2023-04-23T22:42:37.791Z,13.80
2023-04-23T22:45:31.502Z,16.60
2023-04-23T22:48:25.402Z,16.60
2023-04-23T22:51:19.210Z,18.20
2023-04-23T22:54:12.774Z,22.20
2023-04-23T22:57:06.977Z,15.60
2023-04-23T23:00:01.401Z,18.20
2023-04-23T23:02:55.142Z,16.00
2023-04-23T23:05:48.897Z,14.80
2023-04-23T23:08:42.543Z,15.00
2023-04-23T23:11:36.347Z,13.90
2023-04-23T23:14:30.572Z,18.60
2023-04-23T23:17:09.647Z,16.30
2023-04-23T23:20:04.323Z,14.10
2023-04-23T23:22:57.966Z,17.90
2023-04-23T23:25:51.610Z,14.50
2023-04-23T23:28:45.345Z,12.70
2023-04-23T23:31:39.404Z,16.00
2023-04-23T23:34:33.086Z,14.30
2023-04-23T23:37:26.846Z,15.10
2023-04-23T23:40:20.886Z,12.60
2023-04-23T23:43:14.802Z,13.70
2023-04-23T23:46:09.133Z,12.90
2023-04-23T23:49:03.487Z,14.10
2023-04-23T23:51:57.939Z,16.10
2023-04-23T23:54:51.797Z,13.70
2023-04-23T23:57:46.117Z,13.30
